Time;durP1;ratioP1;P1;durP2;ratioP2;P2;SDS_P1;SDS_P2;PMS_P1;PMS_P2;Temp;Humidity;BMP_temperature;BMP_pressure;BME280_temperature;BME280_humidity;BME280_pressure;Samples;Min_cycle;Max_cycle;Signal;HPM_P1;HPM_P2
2022/04/03 00:01:50;;;;;;;8.15;6.25;;;1.30;69.90;;;;;;5032583;28;20729;-78
2022/04/03 00:04:16;;;;;;;9.95;6.45;;;1.30;69.90;;;;;;5032759;28;20254;-77
2022/04/03 00:06:43;;;;;;;11.80;6.97;;;1.30;69.90;;;;;;5032706;28;20237;-76
2022/04/03 00:09:11;;;;;;;7.95;6.20;;;1.30;69.90;;;;;;5032907;28;20644;-78
2022/04/03 00:11:38;;;;;;;8.20;7.00;;;1.30;69.90;;;;;;5037988;28;20218;-77
2022/04/03 00:14:05;;;;;;;10.45;6.18;;;1.30;71.20;;;;;;5042765;28;20266;-77
2022/04/03 00:16:33;;;;;;;13.85;7.15;;;1.30;71.70;;;;;;5041283;28;20294;-76
2022/04/03 00:19:01;;;;;;;7.75;6.30;;;1.40;71.40;;;;;;5033528;28;20207;-77
2022/04/03 00:21:28;;;;;;;7.85;6.32;;;1.40;71.60;;;;;;5032622;28;20627;-77
2022/04/03 00:23:55;;;;;;;10.35;6.95;;;1.50;71.60;;;;;;5032551;28;20306;-75
2022/04/03 00:26:23;;;;;;;9.63;6.72;;;1.60;71.30;;;;;;5032386;28;20295;-76
2022/04/03 00:28:50;;;;;;;6.82;6.03;;;1.60;70.10;;;;;;5032632;28;20655;-77
2022/04/03 00:31:17;;;;;;;9.90;6.95;;;1.60;70.10;;;;;;5032373;28;20207;-77
2022/04/03 00:33:44;;;;;;;8.55;6.82;;;1.60;70.10;;;;;;5032974;28;20233;-79
2022/04/03 00:36:11;;;;;;;10.02;6.90;;;1.70;70.20;;;;;;5032730;28;20203;-77
2022/04/03 00:38:38;;;;;;;8.90;6.85;;;1.70;70.20;;;;;;5032520;28;20252;-77
2022/04/03 00:41:05;;;;;;;9.77;7.43;;;1.70;70.20;;;;;;5032140;28;20383;-77
2022/04/03 00:43:33;;;;;;;11.88;7.63;;;1.60;69.10;;;;;;5032261;28;20614;-76
2022/04/03 00:46:01;;;;;;;8.93;6.95;;;1.70;68.10;;;;;;5032301;28;20236;-76
2022/04/03 00:48:28;;;;;;;8.55;7.15;;;1.60;67.20;;;;;;5031543;28;20294;-75
2022/04/03 00:50:55;;;;;;;7.22;6.50;;;1.60;67.40;;;;;;5031944;28;20207;-77
2022/04/03 00:53:23;;;;;;;9.63;6.90;;;1.70;68.20;;;;;;5032447;28;20734;-76
2022/04/03 00:55:51;;;;;;;10.95;7.20;;;1.70;67.40;;;;;;5032223;28;20223;-77
2022/04/03 00:58:19;;;;;;;7.95;6.90;;;1.70;67.50;;;;;;5032802;28;20651;-78
2022/04/03 01:00:47;;;;;;;10.68;7.00;;;1.80;67.40;;;;;;5035209;28;20226;-77
2022/04/03 01:03:14;;;;;;;9.00;7.43;;;1.70;66.30;;;;;;5044979;28;20670;-78
2022/04/03 01:05:41;;;;;;;8.63;7.63;;;1.70;66.60;;;;;;5050269;28;20290;-77
2022/04/03 01:08:09;;;;;;;9.50;7.97;;;1.70;66.90;;;;;;5050900;28;20283;-77
2022/04/03 01:10:36;;;;;;;12.77;8.25;;;1.70;66.90;;;;;;5043640;28;20690;-76
2022/04/03 01:13:03;;;;;;;13.35;7.80;;;1.80;67.20;;;;;;5041346;28;20207;-76
2022/04/03 01:15:30;;;;;;;9.60;7.53;;;1.90;67.80;;;;;;5042372;28;20223;-77
2022/04/03 01:17:58;;;;;;;11.93;7.93;;;1.80;67.20;;;;;;5048103;28;20199;-78
2022/04/03 01:20:25;;;;;;;9.40;6.82;;;1.80;67.90;;;;;;5051978;28;20207;-78
2022/04/03 01:22:52;;;;;;;9.55;7.65;;;1.70;67.50;;;;;;5050072;28;20199;-78
2022/04/03 01:25:21;;;;;;;9.57;7.68;;;1.70;67.60;;;;;;5041391;28;20231;-77
2022/04/03 01:27:47;;;;;;;9.88;7.70;;;1.70;66.60;;;;;;5040252;28;20589;-78
2022/04/03 01:30:14;;;;;;;12.70;7.13;;;1.70;67.50;;;;;;5039312;28;20230;-78
2022/04/03 01:32:42;;;;;;;12.55;8.20;;;1.60;67.10;;;;;;5038114;28;20230;-77
2022/04/03 01:35:09;;;;;;;10.55;7.70;;;1.60;67.40;;;;;;5037796;28;20242;-77
2022/04/03 01:37:36;;;;;;;11.23;7.90;;;1.60;68.30;;;;;;5039510;28;20217;-77
2022/04/03 01:40:04;;;;;;;9.57;6.93;;;1.50;68.90;;;;;;5039721;28;20667;-78
2022/04/03 01:42:33;;;;;;;10.23;7.82;;;1.50;68.30;;;;;;5042210;28;20227;-77
2022/04/03 01:45:00;;;;;;;9.07;7.55;;;1.50;69.20;;;;;;5049977;28;20223;-78
2022/04/03 01:47:27;;;;;;;9.45;7.28;;;1.50;69.10;;;;;;5049195;28;20214;-77
2022/04/03 01:49:53;;;;;;;9.93;8.02;;;1.50;69.30;;;;;;5053152;28;20215;-77
2022/04/03 01:52:20;;;;;;;9.98;7.25;;;1.50;69.20;;;;;;5042620;28;20208;-77
2022/04/03 01:54:47;;;;;;;10.68;7.53;;;1.60;69.40;;;;;;5039810;28;20227;-79
2022/04/03 01:57:14;;;;;;;11.52;8.02;;;1.60;69.10;;;;;;5047253;28;20217;-77
2022/04/03 01:59:42;;;;;;;9.88;7.25;;;1.60;69.70;;;;;;5038809;28;20203;-77
2022/04/03 02:02:11;;;;;;;12.15;8.02;;;1.60;70.10;;;;;;5054052;28;20235;-77
2022/04/03 02:04:38;;;;;;;9.80;7.90;;;1.50;70.00;;;;;;5057897;28;20211;-74
2022/04/03 02:07:05;;;;;;;10.82;7.82;;;1.50;70.00;;;;;;5058429;28;20230;-74
2022/04/03 02:09:32;;;;;;;14.30;7.57;;;1.50;69.10;;;;;;5058431;28;20230;-74
2022/04/03 02:12:00;;;;;;;10.00;7.32;;;1.50;69.20;;;;;;5058025;28;20205;-75
2022/04/03 02:14:27;;;;;;;13.07;8.25;;;1.50;68.40;;;;;;5058262;28;20198;-78
2022/04/03 02:16:58;;;;;;;9.88;7.10;;;1.50;67.30;;;;;;5056254;28;20264;-74
2022/04/03 02:19:25;;;;;;;12.98;7.32;;;1.50;67.70;;;;;;5056880;28;20214;-73
2022/04/03 02:21:52;;;;;;;14.07;8.20;;;1.40;68.00;;;;;;5057339;28;20265;-75
2022/04/03 02:24:19;;;;;;;12.80;9.02;;;1.50;67.90;;;;;;5056957;28;20214;-75
2022/04/03 02:26:46;;;;;;;10.02;7.22;;;1.50;67.60;;;;;;5057416;28;20207;-76
2022/04/03 02:29:13;;;;;;;10.45;7.50;;;1.50;68.10;;;;;;5058174;28;20195;-75
2022/04/03 02:31:40;;;;;;;10.70;8.38;;;1.40;68.60;;;;;;5051432;28;20210;-78
2022/04/03 02:34:08;;;;;;;13.73;8.70;;;1.40;69.10;;;;;;5048604;28;20644;-79
2022/04/03 02:36:36;;;;;;;10.98;7.85;;;1.40;69.80;;;;;;5049060;28;20227;-77
2022/04/03 02:39:03;;;;;;;9.35;7.38;;;1.40;70.00;;;;;;5047414;28;20230;-77
2022/04/03 02:41:30;;;;;;;10.52;8.18;;;1.40;70.00;;;;;;5044254;28;20223;-77
2022/04/03 02:43:57;;;;;;;15.65;9.20;;;1.40;70.00;;;;;;5043668;28;20241;-78
2022/04/03 02:46:24;;;;;;;11.80;8.60;;;1.40;70.00;;;;;;5044240;28;20218;-77
2022/04/03 02:48:51;;;;;;;13.40;7.75;;;1.40;70.00;;;;;;5044564;28;20223;-76
2022/04/03 02:51:19;;;;;;;10.23;8.30;;;1.40;70.00;;;;;;5042945;28;20207;-80
2022/04/03 02:53:46;;;;;;;11.20;8.48;;;1.30;69.90;;;;;;5043554;28;20317;-77
2022/04/03 02:56:13;;;;;;;12.45;8.50;;;1.40;70.00;;;;;;5046427;28;20218;-76
2022/04/03 02:58:40;;;;;;;12.27;7.93;;;1.40;70.00;;;;;;5050742;28;20222;-76
2022/04/03 03:01:07;;;;;;;12.65;9.10;;;1.40;70.20;;;;;;5053452;28;20218;-76
2022/04/03 03:03:34;;;;;;;12.02;8.02;;;1.30;71.30;;;;;;5050997;28;20257;-75
2022/04/03 03:06:01;;;;;;;13.52;8.90;;;1.30;72.00;;;;;;5043471;28;20266;-76
2022/04/03 03:08:30;;;;;;;14.90;9.00;;;1.30;72.10;;;;;;5044331;28;20237;-76
2022/04/03 03:10:57;;;;;;;11.38;8.43;;;1.40;72.90;;;;;;5047865;28;20203;-76
2022/04/03 03:13:24;;;;;;;13.27;8.35;;;1.50;72.40;;;;;;5052544;28;20215;-76
2022/04/03 03:15:51;;;;;;;11.00;8.10;;;1.50;72.20;;;;;;5048992;28;20298;-76
2022/04/03 03:18:17;;;;;;;15.35;9.32;;;1.50;71.90;;;;;;5055675;28;20258;-77
2022/04/03 03:20:44;;;;;;;12.20;8.43;;;1.50;72.00;;;;;;5052756;28;20211;-76
2022/04/03 03:23:11;;;;;;;12.27;9.23;;;1.50;71.10;;;;;;5055629;28;20254;-78
2022/04/03 03:25:39;;;;;;;11.27;8.50;;;1.50;70.70;;;;;;5051251;28;20277;-77
2022/04/03 03:28:06;;;;;;;11.23;8.48;;;1.60;70.70;;;;;;5047413;28;20234;-77
2022/04/03 03:30:34;;;;;;;12.40;8.73;;;1.50;70.60;;;;;;5046401;28;20199;-77
2022/04/03 03:33:01;;;;;;;10.65;8.85;;;1.60;70.70;;;;;;5049160;28;20206;-77
2022/04/03 03:35:28;;;;;;;9.85;7.95;;;1.50;70.00;;;;;;5049745;28;20218;-78
2022/04/03 03:37:55;;;;;;;12.30;9.45;;;1.50;70.00;;;;;;5049187;28;20807;-78
2022/04/03 03:40:23;;;;;;;14.43;9.45;;;1.40;70.00;;;;;;5046372;28;20203;-78
2022/04/03 03:42:51;;;;;;;14.00;9.07;;;1.40;70.00;;;;;;5047581;28;20226;-77
2022/04/03 03:45:18;;;;;;;11.77;8.88;;;1.40;70.00;;;;;;5050154;28;20223;-77
2022/04/03 03:47:45;;;;;;;11.48;8.82;;;1.40;70.90;;;;;;5050398;28;20215;-77
2022/04/03 03:50:12;;;;;;;11.90;7.78;;;1.50;71.20;;;;;;5049223;28;20245;-78
2022/04/03 03:52:39;;;;;;;12.63;8.40;;;1.40;70.70;;;;;;5049864;28;20234;-78
2022/04/03 03:55:08;;;;;;;11.90;8.98;;;1.40;71.00;;;;;;5052442;28;20227;-78
2022/04/03 03:57:35;;;;;;;10.20;8.85;;;1.40;71.30;;;;;;5054471;28;20264;-78
2022/04/03 04:00:05;;;;;;;14.82;9.75;;;1.50;71.20;;;;;;5054610;28;20218;-78
2022/04/03 04:02:32;;;;;;;14.25;10.35;;;1.50;71.20;;;;;;5053586;28;20215;-78
2022/04/03 04:04:59;;;;;;;13.15;9.60;;;1.40;71.40;;;;;;5054079;28;20230;-78
2022/04/03 04:07:37;;;;;;;12.32;9.18;;;1.50;72.00;;;;;;5055421;28;20206;-77
2022/04/03 04:10:05;;;;;;;15.43;9.73;;;1.40;71.50;;;;;;5055091;28;20211;-77
2022/04/03 04:12:32;;;;;;;13.95;10.82;;;1.40;71.00;;;;;;5052232;28;20215;-78
2022/04/03 04:14:59;;;;;;;13.07;10.18;;;1.40;71.60;;;;;;5052336;28;20291;-78
2022/04/03 04:17:27;;;;;;;13.38;9.40;;;1.40;72.10;;;;;;5051396;28;20241;-78
2022/04/03 04:19:54;;;;;;;13.32;9.75;;;1.40;72.30;;;;;;5050209;28;20292;-77
2022/04/03 04:22:22;;;;;;;18.00;9.00;;;1.40;72.90;;;;;;5053340;28;20226;-77
2022/04/03 04:24:49;;;;;;;16.55;10.27;;;1.40;73.70;;;;;;5053716;28;20269;-77
2022/04/03 04:27:15;;;;;;;13.63;10.48;;;1.40;74.20;;;;;;5055211;28;20195;-75
2022/04/03 04:29:42;;;;;;;12.45;9.63;;;1.40;74.90;;;;;;5055743;28;20227;-76
2022/04/03 04:32:10;;;;;;;15.73;10.10;;;1.50;75.20;;;;;;5055140;28;20203;-75
2022/04/03 04:34:38;;;;;;;12.75;10.02;;;1.50;75.20;;;;;;5055362;28;20223;-78
2022/04/03 04:37:05;;;;;;;13.98;9.75;;;1.40;75.10;;;;;;5054456;28;20272;-77
2022/04/03 04:39:32;;;;;;;13.30;9.93;;;1.40;74.60;;;;;;5051223;28;20679;-77
2022/04/03 04:41:59;;;;;;;17.58;9.68;;;1.40;75.00;;;;;;5054845;28;20219;-78
2022/04/03 04:44:26;;;;;;;14.05;10.00;;;1.40;74.60;;;;;;5055890;28;20281;-77
2022/04/03 04:46:53;;;;;;;12.85;8.98;;;1.50;74.60;;;;;;5049582;28;20203;-77
2022/04/03 04:49:20;;;;;;;13.35;9.50;;;1.40;74.40;;;;;;5053218;28;20191;-78
2022/04/03 04:51:48;;;;;;;14.25;10.00;;;1.40;74.40;;;;;;5050018;28;20741;-79
2022/04/03 04:54:15;;;;;;;12.35;9.15;;;1.40;74.90;;;;;;5020484;28;20227;-79
2022/04/03 04:56:43;;;;;;;13.23;9.48;;;1.40;74.70;;;;;;5018819;28;20269;-77
2022/04/03 04:59:10;;;;;;;13.48;9.85;;;1.40;74.50;;;;;;5016216;28;20226;-78
2022/04/03 05:01:37;;;;;;;13.45;9.95;;;1.40;74.90;;;;;;5016209;28;20207;-78
2022/04/03 05:04:06;;;;;;;14.10;9.60;;;1.40;74.80;;;;;;5016413;28;20263;-76
2022/04/03 05:06:34;;;;;;;14.18;10.10;;;1.40;75.40;;;;;;5016007;28;20691;-79
2022/04/03 05:09:04;;;;;;;11.73;9.00;;;1.40;75.50;;;;;;5016604;28;20736;-78
2022/04/03 05:11:31;;;;;;;14.27;9.82;;;1.40;75.60;;;;;;5016635;28;20410;-76
2022/04/03 05:13:59;;;;;;;14.52;10.10;;;1.40;75.90;;;;;;5015970;28;20204;-77
2022/04/03 05:16:27;;;;;;;15.77;10.45;;;1.40;75.70;;;;;;5031704;28;20207;-77
2022/04/03 05:18:54;;;;;;;12.18;9.27;;;1.50;76.80;;;;;;5035698;28;20293;-77
2022/04/03 05:21:22;;;;;;;13.10;9.00;;;1.50;76.30;;;;;;5036176;28;20215;-77
2022/04/03 05:23:50;;;;;;;12.45;10.32;;;1.60;75.70;;;;;;5037018;28;20695;-77
2022/04/03 05:26:19;;;;;;;12.60;9.80;;;1.50;75.10;;;;;;5037768;28;20614;-78
2022/04/03 05:28:46;;;;;;;14.82;9.75;;;1.60;73.70;;;;;;5040970;28;20215;-77
2022/04/03 05:31:13;;;;;;;12.50;8.80;;;1.50;72.90;;;;;;5050252;28;20211;-77
2022/04/03 05:33:39;;;;;;;13.82;10.05;;;1.60;72.60;;;;;;5049739;28;20231;-78
2022/04/03 05:36:06;;;;;;;16.63;10.07;;;1.60;72.20;;;;;;5042418;28;20231;-78
2022/04/03 05:38:34;;;;;;;16.05;10.45;;;1.50;71.50;;;;;;5050124;28;20207;-79
2022/04/03 05:41:01;;;;;;;10.38;8.68;;;1.60;71.20;;;;;;5051344;28;20270;-78
2022/04/03 05:43:29;;;;;;;12.52;8.85;;;1.50;70.70;;;;;;5044141;28;20405;-78
2022/04/03 05:45:56;;;;;;;12.05;9.38;;;1.50;70.00;;;;;;5038609;28;20241;-78
2022/04/03 05:48:23;;;;;;;14.90;10.43;;;1.50;70.10;;;;;;5038425;28;20261;-79
2022/04/03 05:50:50;;;;;;;13.50;9.57;;;1.50;70.00;;;;;;5036252;28;20214;-80
2022/04/03 05:53:17;;;;;;;16.70;10.20;;;1.60;70.10;;;;;;5036937;28;20207;-78
2022/04/03 05:55:45;;;;;;;15.25;9.27;;;1.60;70.40;;;;;;5038036;28;20253;-78
2022/04/03 05:58:12;;;;;;;13.35;9.23;;;1.70;70.20;;;;;;5039152;28;20235;-78
2022/04/03 06:00:41;;;;;;;12.80;9.75;;;1.70;70.20;;;;;;5038443;28;20659;-78
2022/04/03 06:03:08;;;;;;;13.25;9.40;;;1.80;70.30;;;;;;5043042;28;20238;-77
2022/04/03 06:05:35;;;;;;;12.90;8.98;;;1.80;70.30;;;;;;5049015;28;20246;-77
2022/04/03 06:08:02;;;;;;;13.55;9.45;;;1.70;70.20;;;;;;5053598;28;20230;-77
2022/04/03 06:10:30;;;;;;;13.88;10.15;;;1.70;70.90;;;;;;5052991;28;20207;-77
2022/04/03 06:12:59;;;;;;;11.95;8.50;;;1.60;71.90;;;;;;5064163;22;20243;-81
2022/04/03 06:15:28;;;;;;;13.57;9.85;;;1.70;72.80;;;;;;5054123;28;20216;-81
2022/04/03 06:17:57;;;;;;;11.02;8.50;;;1.80;73.30;;;;;;5070796;28;20274;-80
2022/04/03 06:20:24;;;;;;;12.35;9.63;;;1.90;73.50;;;;;;5047268;28;20227;-80
2022/04/03 06:22:51;;;;;;;10.07;8.70;;;2.10;73.50;;;;;;5041422;28;20242;-81
2022/04/03 06:25:18;;;;;;;11.20;8.80;;;2.10;73.10;;;;;;5028746;28;20204;-80
2022/04/03 06:27:45;;;;;;;9.93;8.60;;;2.10;73.10;;;;;;5027793;28;20207;-80
2022/04/03 06:30:16;;;;;;;17.08;7.30;;;2.10;73.90;;;;;;5040888;28;20252;-80
2022/04/03 06:32:43;;;;;;;11.57;8.10;;;2.30;72.20;;;;;;5047011;28;20227;-79
2022/04/03 06:35:11;;;;;;;10.10;7.65;;;2.50;70.90;;;;;;5045822;28;20218;-80
2022/04/03 06:37:39;;;;;;;10.40;7.90;;;2.80;69.90;;;;;;5047748;28;20217;-79
2022/04/03 06:40:08;;;;;;;11.63;7.43;;;2.90;66.90;;;;;;5043086;28;20384;-80
2022/04/03 06:42:35;;;;;;;9.93;7.82;;;2.80;64.40;;;;;;5035994;28;20291;-79
2022/04/03 06:45:04;;;;;;;9.80;7.95;;;2.90;63.20;;;;;;5048111;28;20199;-80
2022/04/03 06:47:31;;;;;;;8.63;7.28;;;3.10;62.70;;;;;;5048535;28;20627;-79
2022/04/03 06:49:59;;;;;;;10.45;7.88;;;3.00;62.60;;;;;;5050619;28;20207;-78
2022/04/03 06:52:27;;;;;;;10.38;8.38;;;3.10;62.70;;;;;;5053879;28;20261;-81
2022/04/03 06:54:54;;;;;;;9.95;8.40;;;3.10;62.70;;;;;;5052537;28;20279;-79
2022/04/03 06:57:21;;;;;;;9.50;7.93;;;3.10;62.20;;;;;;5047844;28;20222;-80
2022/04/03 06:59:48;;;;;;;6.85;6.03;;;3.10;62.70;;;;;;5047096;28;20235;-80
2022/04/03 07:02:15;;;;;;;9.05;7.25;;;3.10;62.70;;;;;;5046101;28;20203;-79
2022/04/03 07:04:42;;;;;;;8.40;7.20;;;3.20;61.90;;;;;;5043931;28;20222;-80
2022/04/03 07:07:10;;;;;;;8.60;7.28;;;3.20;60.70;;;;;;5044118;28;20261;-78
2022/04/03 07:09:41;;;;;;;9.93;7.15;;;3.20;59.60;;;;;;5038437;28;20235;-81
2022/04/03 07:12:10;;;;;;;9.05;6.63;;;3.20;58.90;;;;;;5037314;28;20654;-84
2022/04/03 07:14:37;;;;;;;8.38;6.35;;;3.20;59.50;;;;;;5057608;28;20203;-85
2022/04/03 07:17:05;;;;;;;7.30;6.30;;;3.00;58.80;;;;;;5042693;28;20196;-85
2022/04/03 07:19:32;;;;;;;9.13;6.90;;;3.00;58.20;;;;;;5031670;28;20203;-80
2022/04/03 07:21:59;;;;;;;7.63;6.20;;;3.00;58.20;;;;;;5042953;28;20225;-79
2022/04/03 07:24:26;;;;;;;8.75;6.60;;;3.20;58.30;;;;;;5032533;28;20247;-80
2022/04/03 07:26:56;;;;;;;5.38;4.75;;;3.40;56.80;;;;;;5027322;28;20239;-80
2022/04/03 07:29:31;;;;;;;5.35;4.65;;;3.30;53.90;;;;;;5025062;28;20212;-79
2022/04/03 07:31:58;;;;;;;5.45;4.95;;;3.20;53.80;;;;;;5024777;28;20663;-79
2022/04/03 07:34:28;;;;;;;6.18;5.00;;;3.30;53.90;;;;;;5033152;28;20310;-79
2022/04/03 07:36:56;;;;;;;6.97;5.15;;;3.50;53.10;;;;;;5043854;28;20298;-80
2022/04/03 07:39:23;;;;;;;5.25;4.47;;;3.70;51.30;;;;;;5032884;28;20208;-80
2022/04/03 07:41:51;;;;;;;4.10;3.70;;;3.60;49.40;;;;;;5024698;28;20235;-80
2022/04/03 07:44:19;;;;;;;6.25;5.00;;;3.60;50.10;;;;;;5024824;28;20232;-80
2022/04/03 07:46:46;;;;;;;5.72;4.30;;;3.70;49.30;;;;;;5025512;28;20211;-80
2022/04/03 07:49:13;;;;;;;6.63;4.93;;;3.80;49.60;;;;;;5040232;28;20198;-80
2022/04/03 07:51:40;;;;;;;6.07;4.50;;;3.70;49.50;;;;;;5050855;28;20203;-80
2022/04/03 07:54:07;;;;;;;6.57;5.22;;;3.50;50.20;;;;;;5049052;28;20694;-79
2022/04/03 07:56:35;;;;;;;7.18;5.05;;;3.20;52.10;;;;;;5049559;28;20191;-80
2022/04/03 07:59:03;;;;;;;6.65;5.10;;;3.20;51.80;;;;;;5047893;28;20207;-81
2022/04/03 08:01:32;;;;;;;6.22;5.35;;;3.50;51.00;;;;;;5050509;28;20203;-78
2022/04/03 08:03:58;;;;;;;5.28;4.57;;;3.80;51.20;;;;;;5043525;28;20235;-79
2022/04/03 08:06:25;;;;;;;7.30;5.55;;;4.10;48.60;;;;;;5045642;28;20659;-81
2022/04/03 08:08:53;;;;;;;7.65;5.50;;;3.80;48.80;;;;;;5045636;28;20274;-79
2022/04/03 08:11:19;;;;;;;6.88;5.05;;;4.10;49.80;;;;;;5044476;28;20195;-80
2022/04/03 08:13:47;;;;;;;8.68;5.82;;;4.40;47.20;;;;;;5045355;28;20293;-78
2022/04/03 08:16:15;;;;;;;7.28;4.32;;;4.40;48.60;;;;;;5033411;28;20231;-80
2022/04/03 08:18:46;;;;;;;6.38;4.10;;;4.80;45.70;;;;;;5033516;28;20207;-81
2022/04/03 08:21:13;;;;;;;6.40;4.43;;;4.90;44.20;;;;;;5034670;28;20257;-82
2022/04/03 08:23:44;;;;;;;6.50;4.20;;;5.00;44.10;;;;;;5045753;28;20253;-79
2022/04/03 08:26:13;;;;;;;5.82;4.90;;;5.10;44.50;;;;;;5043879;28;20231;-78
2022/04/03 08:28:40;;;;;;;4.82;4.35;;;5.20;44.00;;;;;;5043499;28;20203;-79
2022/04/03 08:31:07;;;;;;;4.30;3.83;;;5.30;42.20;;;;;;5044263;28;20223;-79
2022/04/03 08:33:34;;;;;;;4.07;3.67;;;5.50;42.20;;;;;;5046956;28;20284;-79
2022/04/03 08:36:03;;;;;;;4.90;4.20;;;5.10;41.00;;;;;;5046065;28;20211;-79
2022/04/03 08:38:30;;;;;;;4.68;4.18;;;5.40;42.10;;;;;;5027636;28;20239;-78
2022/04/03 08:40:59;;;;;;;6.65;4.15;;;5.50;40.20;;;;;;5028186;28;20279;-79
2022/04/03 08:43:28;;;;;;;4.78;3.88;;;4.70;39.90;;;;;;5030898;28;20287;-78
2022/04/03 08:45:55;;;;;;;4.55;3.80;;;4.80;39.80;;;;;;5034261;28;20211;-80
2022/04/03 08:48:23;;;;;;;4.25;3.67;;;5.20;40.90;;;;;;5046611;28;20234;-79
2022/04/03 08:50:52;;;;;;;4.53;3.53;;;5.60;38.70;;;;;;5047910;28;20214;-78
2022/04/03 08:53:23;;;;;;;4.30;3.90;;;5.10;38.90;;;;;;5048241;28;20239;-78
2022/04/03 08:55:50;;;;;;;5.60;3.75;;;5.20;38.50;;;;;;5043202;28;20554;-81
2022/04/03 08:58:18;;;;;;;3.65;3.28;;;5.30;37.90;;;;;;5041101;28;20211;-78
2022/04/03 09:00:46;;;;;;;5.80;3.80;;;5.30;36.40;;;;;;5046075;28;20211;-79
2022/04/03 09:03:13;;;;;;;6.65;3.83;;;5.60;36.70;;;;;;5045771;28;20231;-78
2022/04/03 09:05:42;;;;;;;4.40;4.00;;;5.60;38.40;;;;;;5044487;28;20231;-79
2022/04/03 09:08:10;;;;;;;4.82;3.78;;;4.80;38.30;;;;;;5034016;28;20542;-80
2022/04/03 09:10:41;;;;;;;4.53;3.40;;;4.80;38.70;;;;;;5037209;28;20214;-80
2022/04/03 09:13:09;;;;;;;3.80;2.97;;;4.80;38.30;;;;;;5049465;28;20236;-79
2022/04/03 09:15:38;;;;;;;4.40;3.38;;;4.70;35.90;;;;;;5049144;28;20198;-83
2022/04/03 09:18:08;;;;;;;4.40;3.67;;;4.60;36.50;;;;;;5050339;28;20210;-80
2022/04/03 09:20:40;;;;;;;4.03;3.63;;;4.60;35.80;;;;;;5048572;28;20242;-78
2022/04/03 09:23:10;;;;;;;4.55;3.60;;;4.60;37.90;;;;;;5055134;28;20238;-79
2022/04/03 09:25:41;;;;;;;5.80;4.22;;;4.50;39.00;;;;;;5057668;28;20247;-81
2022/04/03 09:28:11;;;;;;;4.63;3.10;;;4.60;38.50;;;;;;5058188;28;20214;-83
2022/04/03 09:30:40;;;;;;;4.55;3.85;;;4.50;39.20;;;;;;5041955;28;20258;-79
2022/04/03 09:33:08;;;;;;;4.10;3.65;;;4.60;39.00;;;;;;5040934;28;20238;-78
2022/04/03 09:35:54;;;;;;;4.68;3.20;;;4.60;38.40;;;;;;5042863;28;20222;-78
2022/04/03 09:38:22;;;;;;;3.85;3.03;;;4.30;39.00;;;;;;5023990;28;20204;-78
2022/04/03 09:40:53;;;;;;;4.00;3.60;;;4.20;38.40;;;;;;5028231;28;20246;-79
2022/04/03 09:43:22;;;;;;;5.53;3.83;;;4.20;38.60;;;;;;5053087;28;20223;-78
2022/04/03 09:45:51;;;;;;;3.97;3.50;;;4.30;38.70;;;;;;5050097;28;20230;-80
2022/04/03 09:48:28;;;;;;;5.72;3.78;;;4.10;38.40;;;;;;5050618;28;20205;-79
2022/04/03 09:51:06;;;;;;;3.95;3.35;;;4.30;38.90;;;;;;5045511;28;20219;-77
2022/04/03 09:53:45;;;;;;;9.65;3.67;;;4.40;37.80;;;;;;5042413;28;20706;-78
2022/04/03 09:56:15;;;;;;;4.93;4.15;;;4.40;38.60;;;;;;5045771;28;20238;-79
2022/04/03 09:58:57;;;;;;;7.22;4.95;;;4.10;40.30;;;;;;5047146;28;20226;-80
2022/04/03 10:01:27;;;;;;;6.43;3.63;;;4.00;40.00;;;;;;5048419;28;20207;-79
2022/04/03 10:04:03;;;;;;;6.55;3.95;;;3.90;41.60;;;;;;5044556;28;20296;-79
2022/04/03 10:06:32;;;;;;;4.35;3.45;;;4.00;42.00;;;;;;5043843;28;20207;-80
2022/04/03 10:09:00;;;;;;;4.97;4.00;;;3.70;42.50;;;;;;5030472;28;20207;-80
2022/04/03 10:11:30;;;;;;;4.57;3.42;;;3.50;41.90;;;;;;5029636;28;20212;-80
2022/04/03 10:13:59;;;;;;;6.10;4.18;;;3.40;42.30;;;;;;5044227;28;20235;-79
2022/04/03 10:16:29;;;;;;;5.03;3.97;;;3.60;43.70;;;;;;5044481;28;20254;-79
2022/04/03 10:18:57;;;;;;;5.85;3.45;;;3.70;43.40;;;;;;5045876;28;20557;-79
2022/04/03 10:21:33;;;;;;;4.68;4.20;;;3.60;44.70;;;;;;5047196;28;20285;-78
2022/04/03 10:24:05;;;;;;;4.80;4.30;;;3.80;44.80;;;;;;5030775;28;20227;-79
2022/04/03 10:26:38;;;;;;;4.47;4.03;;;3.80;43.50;;;;;;5031717;28;20223;-78
2022/04/03 10:29:09;;;;;;;5.28;4.78;;;3.70;43.80;;;;;;5052516;28;20196;-78
2022/04/03 10:31:37;;;;;;;8.55;4.90;;;3.80;42.90;;;;;;5052693;28;20219;-78
2022/04/03 10:34:04;;;;;;;6.40;4.60;;;3.80;42.80;;;;;;5028126;28;20263;-79
2022/04/03 10:36:33;;;;;;;9.13;4.30;;;3.70;42.10;;;;;;5030044;28;20273;-79
2022/04/03 10:39:05;;;;;;;7.03;5.35;;;3.80;40.80;;;;;;5030980;28;20219;-81
2022/04/03 10:41:35;;;;;;;5.38;4.10;;;3.80;40.20;;;;;;5047401;28;20176;-82
2022/04/03 10:44:14;;;;;;;6.25;4.90;;;3.70;39.90;;;;;;5058462;28;20227;-80
2022/04/03 10:47:21;;;;;;;4.95;4.30;;;3.70;40.20;;;;;;5038121;28;20190;-81
2022/04/03 10:50:07;;;;;;;7.82;5.25;;;3.90;39.30;;;;;;5039876;28;20203;-83
2022/04/03 10:52:53;;;;;;;4.75;4.25;;;3.80;40.00;;;;;;5048247;28;20207;-83
2022/04/03 10:55:23;;;;;;;5.70;3.95;;;4.00;40.20;;;;;;5045205;28;20211;-80
2022/04/03 10:57:52;;;;;;;5.32;4.40;;;4.00;40.70;;;;;;5056467;28;20207;-79
2022/04/03 11:00:41;;;;;;;7.20;4.63;;;3.90;41.80;;;;;;5054709;28;20214;-77
2022/04/03 11:03:37;;;;;;;5.30;3.65;;;3.90;40.90;;;;;;5055403;28;20231;-78
2022/04/03 11:06:27;;;;;;;5.93;4.30;;;4.00;40.20;;;;;;5040999;28;20484;-79
2022/04/03 11:09:08;;;;;;;4.88;4.22;;;4.20;40.40;;;;;;5032066;28;20212;-81
2022/04/03 11:11:41;;;;;;;5.40;4.68;;;4.10;40.70;;;;;;5043316;28;20199;-79
2022/04/03 11:14:10;;;;;;;5.65;4.82;;;3.60;42.70;;;;;;5046360;28;20250;-80
2022/04/03 11:16:57;;;;;;;5.50;4.88;;;3.60;44.70;;;;;;5044186;28;20211;-80
2022/04/03 11:19:37;;;;;;;4.95;4.40;;;3.60;44.70;;;;;;5047123;28;20221;-81
2022/04/03 11:22:06;;;;;;;5.22;4.47;;;4.00;44.90;;;;;;5052391;28;20183;-80
2022/04/03 11:24:37;;;;;;;6.70;5.47;;;3.80;44.00;;;;;;5057136;28;20226;-79
2022/04/03 11:27:05;;;;;;;9.68;5.05;;;3.90;43.90;;;;;;5037838;28;20223;-80
2022/04/03 11:29:32;;;;;;;5.28;4.47;;;4.00;43.90;;;;;;5035224;28;20199;-79
2022/04/03 11:32:03;;;;;;;4.65;3.90;;;4.30;42.70;;;;;;5048358;28;20191;-78
2022/04/03 11:34:31;;;;;;;5.85;4.60;;;4.90;40.20;;;;;;5057129;28;20199;-80
2022/04/03 11:37:00;;;;;;;12.65;5.00;;;5.00;39.60;;;;;;5057385;28;20188;-81
2022/04/03 11:39:35;;;;;;;5.10;4.68;;;5.60;37.10;;;;;;5056889;28;20203;-80
2022/04/03 11:42:07;;;;;;;5.28;4.78;;;6.10;36.60;;;;;;5052469;28;20191;-82
2022/04/03 11:44:38;;;;;;;6.60;4.57;;;6.40;34.50;;;;;;5048352;28;20215;-80
2022/04/03 11:47:07;;;;;;;4.30;3.90;;;6.70;34.00;;;;;;5050981;28;20217;-82
2022/04/03 11:49:36;;;;;;;4.47;3.67;;;6.90;30.70;;;;;;5040051;28;20662;-81
2022/04/03 11:52:09;;;;;;;4.93;3.65;;;6.90;29.90;;;;;;5037358;28;20655;-78
2022/04/03 11:54:37;;;;;;;4.40;3.70;;;6.70;29.20;;;;;;5038021;28;20632;-79
2022/04/03 11:57:06;;;;;;;5.93;4.05;;;6.30;29.60;;;;;;5042394;28;20277;-79
2022/04/03 11:59:35;;;;;;;5.00;4.45;;;6.10;31.30;;;;;;5027103;28;20208;-80
2022/04/03 12:02:13;;;;;;;6.45;3.85;;;6.40;31.40;;;;;;5027075;28;20217;-81
2022/04/03 12:04:41;;;;;;;6.55;4.55;;;6.50;30.10;;;;;;5028761;28;20306;-80
2022/04/03 12:07:13;;;;;;;4.88;3.95;;;6.50;30.30;;;;;;5027313;28;20287;-79
2022/04/03 12:09:43;;;;;;;5.20;3.97;;;6.50;30.60;;;;;;5020702;28;20326;-81
2022/04/03 12:12:11;;;;;;;4.55;3.65;;;6.00;30.00;;;;;;5021510;28;20278;-79
2022/04/03 12:14:42;;;;;;;3.97;3.60;;;5.40;31.30;;;;;;5036815;28;20211;-82
2022/04/03 12:17:11;;;;;;;7.63;4.13;;;5.20;32.20;;;;;;5042064;28;20211;-79
2022/04/03 12:19:42;;;;;;;7.65;3.95;;;5.20;32.70;;;;;;5044234;28;20567;-81
2022/04/03 12:22:10;;;;;;;6.28;4.50;;;5.50;32.10;;;;;;5042949;28;20214;-79
2022/04/03 12:24:39;;;;;;;4.90;4.22;;;5.30;32.80;;;;;;5043459;28;20218;-79
2022/04/03 12:27:12;;;;;;;4.45;3.85;;;5.70;31.80;;;;;;5046113;28;20211;-79
2022/04/03 12:29:41;;;;;;;4.65;4.20;;;6.10;31.00;;;;;;5047029;28;20211;-79
2022/04/03 12:32:12;;;;;;;4.50;4.10;;;6.30;30.00;;;;;;5043787;28;20269;-80
2022/04/03 12:34:43;;;;;;;5.95;4.65;;;6.60;29.80;;;;;;5046015;28;20211;-78
2022/04/03 12:37:12;;;;;;;4.97;4.10;;;6.30;30.00;;;;;;5040558;28;20200;-80
2022/04/03 12:39:42;;;;;;;4.47;4.07;;;6.40;29.30;;;;;;5044631;28;20210;-79
2022/04/03 12:42:12;;;;;;;7.40;3.72;;;6.10;29.60;;;;;;5036771;28;20226;-77
2022/04/03 12:44:48;;;;;;;5.50;4.45;;;6.70;28.80;;;;;;5021998;28;20208;-80
2022/04/03 12:47:18;;;;;;;5.55;4.38;;;7.00;28.40;;;;;;5022115;28;20200;-79
2022/04/03 12:49:51;;;;;;;4.30;3.90;;;7.10;28.50;;;;;;5022606;28;20378;-80
2022/04/03 12:52:37;;;;;;;5.00;3.72;;;7.20;28.30;;;;;;5040077;28;20261;-80
2022/04/03 12:55:05;;;;;;;4.95;4.13;;;7.30;28.00;;;;;;5043382;28;20217;-80
2022/04/03 13:00:18;;;;;;;3.83;3.50;;;7.10;27.00;;;;;;5052986;28;20237;-79
2022/04/03 13:02:50;;;;;;;4.90;3.70;;;7.20;27.20;;;;;;5057665;28;20238;-77
2022/04/03 13:05:18;;;;;;;4.63;4.22;;;7.30;26.30;;;;;;5040151;28;20245;-82